createdAt,value
2022-08-14T00:00:00.454Z,24.58
2022-08-14T00:01:00.315Z,24.58
2022-08-14T00:02:02.298Z,24.58
2022-08-14T00:03:00.254Z,24.58
2022-08-14T00:04:00.262Z,24.49
2022-08-14T00:05:00.305Z,24.49
2022-08-14T00:06:01.283Z,24.49
2022-08-14T00:07:00.291Z,24.49
2022-08-14T00:08:00.262Z,24.49
2022-08-14T00:09:00.265Z,24.39
2022-08-14T00:10:49.168Z,24.39
2022-08-14T00:11:00.594Z,24.39
2022-08-14T00:12:00.455Z,24.39
2022-08-14T00:13:00.755Z,24.39
2022-08-14T00:14:01.446Z,24.30
2022-08-14T00:15:02.729Z,24.30
2022-08-14T00:16:01.574Z,24.30
2022-08-14T00:17:01.250Z,24.30
2022-08-14T00:18:00.646Z,24.30
2022-08-14T00:19:06.306Z,24.16
2022-08-14T00:20:00.375Z,24.16
2022-08-14T00:21:00.448Z,24.16
2022-08-14T00:22:00.274Z,24.16
2022-08-14T00:23:08.304Z,24.16
2022-08-14T00:24:01.728Z,24.06
2022-08-14T00:25:00.625Z,24.06
2022-08-14T00:26:06.040Z,24.06
2022-08-14T00:27:02.218Z,24.06
2022-08-14T00:28:00.802Z,24.06
2022-08-14T00:29:00.269Z,23.95
2022-08-14T00:30:00.330Z,23.95
2022-08-14T00:31:00.300Z,23.95
2022-08-14T00:32:00.295Z,23.95
2022-08-14T00:33:00.370Z,23.95
2022-08-14T00:34:35.386Z,23.84
2022-08-14T00:35:00.505Z,23.84
2022-08-14T00:36:37.053Z,23.84
2022-08-14T00:37:00.331Z,23.84
2022-08-14T00:38:00.567Z,23.84
2022-08-14T00:39:00.273Z,23.70
2022-08-14T00:40:00.606Z,23.70
2022-08-14T00:41:00.551Z,23.70
2022-08-14T00:42:01.083Z,23.70
2022-08-14T00:43:00.803Z,23.70
2022-08-14T00:44:00.293Z,23.58
2022-08-14T00:45:00.331Z,23.58
2022-08-14T00:46:05.394Z,23.58
2022-08-14T00:47:01.059Z,23.58
2022-08-14T00:48:00.577Z,23.58
2022-08-14T00:49:00.283Z,23.54
2022-08-14T00:50:01.090Z,23.54
2022-08-14T00:51:00.520Z,23.54
2022-08-14T00:52:00.276Z,23.54
2022-08-14T00:53:00.418Z,23.54
2022-08-14T00:54:00.368Z,23.49
2022-08-14T00:55:01.346Z,23.49
2022-08-14T00:56:01.091Z,23.49
2022-08-14T00:57:00.345Z,23.49
2022-08-14T00:58:00.430Z,23.49
2022-08-14T00:59:00.274Z,23.32
2022-08-14T01:00:01.077Z,23.32
2022-08-14T01:01:00.281Z,23.32
2022-08-14T01:02:00.786Z,23.32
2022-08-14T01:03:00.443Z,23.32
2022-08-14T01:04:00.767Z,23.33
2022-08-14T01:05:00.304Z,23.33
2022-08-14T01:06:00.749Z,23.33
2022-08-14T01:07:00.639Z,23.33
2022-08-14T01:08:00.925Z,23.33
2022-08-14T01:09:00.829Z,23.25
2022-08-14T01:10:01.116Z,23.25
2022-08-14T01:11:00.680Z,23.25
2022-08-14T01:12:03.237Z,23.25
2022-08-14T01:13:00.554Z,23.25
2022-08-14T01:14:01.092Z,23.08
2022-08-14T01:15:02.108Z,23.08
2022-08-14T01:16:02.720Z,23.08
2022-08-14T01:17:00.277Z,23.08
2022-08-14T01:18:00.416Z,23.08
2022-08-14T01:19:02.127Z,22.91
2022-08-14T01:20:00.350Z,22.91
2022-08-14T01:21:00.638Z,22.91
2022-08-14T01:22:00.326Z,22.91
2022-08-14T01:23:00.279Z,22.91
2022-08-14T01:24:00.525Z,22.73
2022-08-14T01:25:00.268Z,22.73
2022-08-14T01:26:00.475Z,22.73
2022-08-14T01:27:00.994Z,22.73
2022-08-14T01:28:00.284Z,22.73
2022-08-14T01:29:01.505Z,22.65
2022-08-14T01:30:04.189Z,22.65
2022-08-14T01:31:00.392Z,22.65
2022-08-14T01:32:00.387Z,22.65
2022-08-14T01:33:00.288Z,22.65
2022-08-14T01:35:16.034Z,22.58
2022-08-14T01:35:18.573Z,22.58
2022-08-14T01:36:04.923Z,22.58
2022-08-14T01:37:00.278Z,22.58
2022-08-14T01:38:00.287Z,22.58
2022-08-14T01:39:00.399Z,22.53
2022-08-14T01:40:00.315Z,22.53
2022-08-14T01:41:00.831Z,22.53
2022-08-14T01:42:00.323Z,22.53
2022-08-14T01:43:00.263Z,22.53
2022-08-14T01:44:02.247Z,22.53
2022-08-14T01:45:00.340Z,22.53
2022-08-14T01:46:06.912Z,22.53
2022-08-14T01:47:01.824Z,22.53
2022-08-14T01:48:03.578Z,22.53
2022-08-14T01:49:01.376Z,22.49
2022-08-14T01:50:01.941Z,22.49
2022-08-14T01:51:00.361Z,22.49
2022-08-14T01:52:00.280Z,22.49
2022-08-14T01:53:01.490Z,22.49
2022-08-14T01:54:03.314Z,22.53
2022-08-14T01:55:00.289Z,22.53
2022-08-14T01:56:02.426Z,22.53
2022-08-14T01:57:00.552Z,22.53
2022-08-14T01:58:18.492Z,22.53
2022-08-14T01:59:00.759Z,22.49
2022-08-14T02:00:00.563Z,22.49
2022-08-14T02:01:00.298Z,22.49
2022-08-14T02:02:02.925Z,22.49
2022-08-14T02:03:00.312Z,22.49
2022-08-14T02:04:01.008Z,22.45
2022-08-14T02:05:01.304Z,22.45
2022-08-14T02:06:03.875Z,22.45
2022-08-14T02:07:01.392Z,22.45
2022-08-14T02:08:08.915Z,22.45
2022-08-14T02:09:00.274Z,22.44
2022-08-14T02:10:00.310Z,22.44
2022-08-14T02:11:00.279Z,22.44
2022-08-14T02:12:01.197Z,22.44
2022-08-14T02:13:00.404Z,22.44
2022-08-14T02:14:07.235Z,22.32
2022-08-14T02:15:01.403Z,22.32
2022-08-14T02:16:00.269Z,22.32
2022-08-14T02:17:00.799Z,22.32
2022-08-14T02:18:00.321Z,22.32
2022-08-14T02:19:01.110Z,22.19
2022-08-14T02:20:00.307Z,22.19
2022-08-14T02:21:00.732Z,22.19
2022-08-14T02:22:02.956Z,22.19
2022-08-14T02:23:00.270Z,22.19
2022-08-14T02:24:00.837Z,22.05
2022-08-14T02:25:00.547Z,22.05
2022-08-14T02:26:18.163Z,22.05
2022-08-14T02:28:22.970Z,22.05
2022-08-14T02:28:23.643Z,22.05
2022-08-14T02:29:03.437Z,22.01
2022-08-14T02:30:02.031Z,22.01
2022-08-14T02:31:00.290Z,22.01
2022-08-14T02:32:00.317Z,22.01
2022-08-14T02:33:00.273Z,22.01
2022-08-14T02:34:05.841Z,21.95
2022-08-14T02:35:00.282Z,21.95
2022-08-14T02:37:00.729Z,21.95
2022-08-14T02:37:04.831Z,21.95
2022-08-14T02:38:00.907Z,21.95
2022-08-14T02:39:00.299Z,21.85
2022-08-14T02:40:00.431Z,21.85
2022-08-14T02:41:00.700Z,21.85
2022-08-14T02:42:00.325Z,21.85
2022-08-14T02:43:01.112Z,21.85
2022-08-14T02:44:01.556Z,21.77
2022-08-14T02:45:00.324Z,21.77
2022-08-14T02:46:00.288Z,21.77
2022-08-14T02:47:01.437Z,21.77
2022-08-14T02:48:00.517Z,21.77
2022-08-14T02:49:01.726Z,21.66
2022-08-14T02:50:00.320Z,21.66
2022-08-14T02:51:01.222Z,21.66
2022-08-14T02:52:00.310Z,21.66
2022-08-14T02:53:03.390Z,21.66
2022-08-14T02:54:00.376Z,21.60
2022-08-14T02:55:00.285Z,21.60
2022-08-14T02:56:03.327Z,21.60
2022-08-14T02:57:16.500Z,21.60
2022-08-14T02:58:03.533Z,21.60
2022-08-14T02:59:00.510Z,21.53
2022-08-14T03:00:00.480Z,21.53
2022-08-14T03:01:01.476Z,21.53
2022-08-14T03:02:01.063Z,21.53
2022-08-14T03:03:01.273Z,21.53
2022-08-14T03:04:00.278Z,21.46
2022-08-14T03:05:00.315Z,21.46
2022-08-14T03:06:00.442Z,21.46
2022-08-14T03:07:07.775Z,21.46
2022-08-14T03:08:04.952Z,21.46
2022-08-14T03:09:00.370Z,21.36
2022-08-14T03:10:27.993Z,21.36
2022-08-14T03:11:00.863Z,21.36
2022-08-14T03:12:00.289Z,21.36
2022-08-14T03:13:07.151Z,21.36
2022-08-14T03:14:03.367Z,21.35
2022-08-14T03:15:01.240Z,21.35
2022-08-14T03:16:07.950Z,21.35
2022-08-14T03:17:00.285Z,21.35
2022-08-14T03:18:00.344Z,21.35
2022-08-14T03:19:01.375Z,21.20
2022-08-14T03:20:11.352Z,21.20
2022-08-14T03:21:01.763Z,21.20
2022-08-14T03:22:00.330Z,21.20
2022-08-14T03:23:03.159Z,21.20
2022-08-14T03:24:01.861Z,21.01
2022-08-14T03:25:00.470Z,21.01
2022-08-14T03:26:01.133Z,21.01
2022-08-14T03:27:02.337Z,21.01
2022-08-14T03:28:14.777Z,21.01
2022-08-14T03:29:04.401Z,20.94
2022-08-14T03:30:00.291Z,20.94
2022-08-14T03:31:00.440Z,20.94
2022-08-14T03:32:00.269Z,20.94
2022-08-14T03:33:00.621Z,20.94
2022-08-14T03:34:00.597Z,20.88
2022-08-14T03:35:00.269Z,20.88
2022-08-14T03:37:29.629Z,20.88
2022-08-14T03:37:38.637Z,20.88
2022-08-14T03:39:13.606Z,20.88
2022-08-14T03:39:14.472Z,20.79
2022-08-14T03:40:00.642Z,20.79
2022-08-14T03:41:00.254Z,20.79
2022-08-14T03:42:01.936Z,20.79
2022-08-14T03:43:00.350Z,20.79
2022-08-14T03:45:19.808Z,20.65
2022-08-14T03:45:25.361Z,20.65
2022-08-14T03:46:00.266Z,20.65
2022-08-14T03:47:00.516Z,20.65
2022-08-14T03:48:02.429Z,20.65
2022-08-14T03:49:01.116Z,20.52
2022-08-14T03:50:00.327Z,20.52
2022-08-14T03:51:01.504Z,20.52
2022-08-14T03:52:00.819Z,20.52
2022-08-14T03:53:01.337Z,20.52
2022-08-14T03:54:01.261Z,20.42
2022-08-14T03:55:00.305Z,20.42
2022-08-14T03:56:00.329Z,20.42
2022-08-14T03:57:00.483Z,20.42
2022-08-14T03:58:00.957Z,20.42
2022-08-14T03:59:00.978Z,20.33
2022-08-14T04:00:01.073Z,20.33
2022-08-14T04:01:00.343Z,20.33
2022-08-14T04:02:01.694Z,20.33
2022-08-14T04:03:01.434Z,20.33
2022-08-14T04:04:00.256Z,20.27
2022-08-14T04:05:12.262Z,20.27
2022-08-14T04:06:00.370Z,20.27
2022-08-14T04:07:00.274Z,20.27
2022-08-14T04:08:22.793Z,20.27
2022-08-14T04:09:00.411Z,20.20
2022-08-14T04:10:00.559Z,20.20
2022-08-14T04:11:01.356Z,20.20
2022-08-14T04:12:00.330Z,20.20
2022-08-14T04:13:03.055Z,20.20
2022-08-14T04:14:00.346Z,20.10
2022-08-14T04:15:00.266Z,20.10
2022-08-14T04:16:04.993Z,20.10
2022-08-14T04:17:00.278Z,20.10
2022-08-14T04:18:04.405Z,20.10
2022-08-14T04:19:00.302Z,20.01
2022-08-14T04:20:00.506Z,20.01
2022-08-14T04:21:00.290Z,20.01
2022-08-14T04:22:02.932Z,20.01
2022-08-14T04:23:00.667Z,20.01
2022-08-14T04:24:00.621Z,19.96
2022-08-14T04:25:04.461Z,19.96
2022-08-14T04:26:03.709Z,19.96
2022-08-14T04:27:00.268Z,19.96
2022-08-14T04:28:02.308Z,19.96
2022-08-14T04:29:13.735Z,19.94
2022-08-14T04:30:01.143Z,19.94
2022-08-14T04:31:00.268Z,19.94
2022-08-14T04:33:01.661Z,19.94
2022-08-14T04:33:13.435Z,19.94
2022-08-14T04:34:00.283Z,19.92
2022-08-14T04:35:00.830Z,19.92
2022-08-14T04:36:00.258Z,19.92
2022-08-14T04:37:00.505Z,19.92
2022-08-14T04:38:07.661Z,19.92
2022-08-14T04:39:00.261Z,19.83
2022-08-14T04:40:00.325Z,19.83
2022-08-14T04:41:00.562Z,19.83
2022-08-14T04:42:00.258Z,19.83
2022-08-14T04:43:00.276Z,19.83
2022-08-14T04:44:00.560Z,19.87
2022-08-14T04:45:00.678Z,19.87
2022-08-14T04:46:00.798Z,19.87
2022-08-14T04:47:00.302Z,19.87
2022-08-14T04:48:00.313Z,19.87
2022-08-14T04:49:00.741Z,19.84
2022-08-14T04:50:03.469Z,19.84
2022-08-14T04:51:00.721Z,19.84
2022-08-14T04:52:00.338Z,19.84
2022-08-14T04:53:00.944Z,19.84
2022-08-14T04:54:00.331Z,19.69
2022-08-14T04:55:00.305Z,19.69
2022-08-14T04:56:00.369Z,19.69
2022-08-14T04:57:00.268Z,19.69
2022-08-14T04:58:02.545Z,19.69
2022-08-14T04:59:03.785Z,19.62
2022-08-14T05:00:00.340Z,19.62
2022-08-14T05:01:02.362Z,19.62
2022-08-14T05:02:00.352Z,19.62
2022-08-14T05:03:00.297Z,19.62
2022-08-14T05:04:00.273Z,19.60
2022-08-14T05:05:00.280Z,19.60
2022-08-14T05:06:03.224Z,19.60
2022-08-14T05:07:00.284Z,19.60
2022-08-14T05:08:09.657Z,19.60
2022-08-14T05:09:00.598Z,19.50
2022-08-14T05:10:00.336Z,19.50
2022-08-14T05:11:01.205Z,19.50
2022-08-14T05:13:08.309Z,19.50
2022-08-14T05:13:13.548Z,19.50
2022-08-14T05:14:17.151Z,19.51
2022-08-14T05:15:00.266Z,19.51
2022-08-14T05:16:00.553Z,19.51
2022-08-14T05:17:01.807Z,19.51
2022-08-14T05:18:16.845Z,19.51
2022-08-14T05:19:18.525Z,19.50
2022-08-14T05:21:54.325Z,19.50
2022-08-14T05:21:57.878Z,19.50
2022-08-14T05:22:16.453Z,19.50
2022-08-14T05:23:01.367Z,19.50
2022-08-14T05:24:01.046Z,19.46
2022-08-14T05:25:00.457Z,19.46
2022-08-14T05:26:00.852Z,19.46
2022-08-14T05:27:00.304Z,19.46
2022-08-14T05:28:14.178Z,19.46
2022-08-14T05:29:00.260Z,19.45
2022-08-14T05:30:02.791Z,19.45
2022-08-14T05:31:02.260Z,19.45
2022-08-14T05:32:00.292Z,19.45
2022-08-14T05:33:00.288Z,19.45
2022-08-14T05:35:00.502Z,19.42
2022-08-14T05:36:01.052Z,19.42
2022-08-14T05:37:02.272Z,19.42
2022-08-14T05:38:10.789Z,19.42
2022-08-14T05:39:00.366Z,19.46
2022-08-14T05:40:00.822Z,19.46
2022-08-14T05:41:01.184Z,19.46
2022-08-14T05:42:00.694Z,19.46
2022-08-14T05:43:00.439Z,19.46
2022-08-14T05:44:00.272Z,19.53
2022-08-14T05:45:00.746Z,19.53
2022-08-14T05:46:00.429Z,19.53
2022-08-14T05:47:00.270Z,19.53
2022-08-14T05:48:00.798Z,19.53
2022-08-14T05:49:00.288Z,19.56
2022-08-14T05:50:00.288Z,19.56
2022-08-14T05:51:00.338Z,19.56
2022-08-14T05:52:01.939Z,19.56
2022-08-14T05:53:00.770Z,19.56
2022-08-14T05:54:13.748Z,19.47
2022-08-14T05:55:00.296Z,19.47
2022-08-14T05:56:00.263Z,19.47
2022-08-14T05:57:00.278Z,19.47
2022-08-14T05:58:01.842Z,19.47
2022-08-14T05:59:00.652Z,19.46
2022-08-14T06:00:00.369Z,19.46
2022-08-14T06:01:00.481Z,19.46
2022-08-14T06:02:00.286Z,19.46
2022-08-14T06:03:04.229Z,19.46
2022-08-14T06:04:00.321Z,19.71
2022-08-14T06:05:00.300Z,19.71
2022-08-14T06:06:00.265Z,19.71
2022-08-14T06:07:00.258Z,19.71
2022-08-14T06:08:00.859Z,19.71
2022-08-14T06:09:00.322Z,19.99
2022-08-14T06:10:03.817Z,19.99
2022-08-14T06:11:01.429Z,19.99
2022-08-14T06:12:00.264Z,19.99
2022-08-14T06:13:00.323Z,19.99
2022-08-14T06:14:00.321Z,21.36
2022-08-14T06:15:00.630Z,21.36
2022-08-14T06:16:00.360Z,21.36
2022-08-14T06:17:00.325Z,21.36
2022-08-14T06:18:00.758Z,21.36
2022-08-14T06:19:00.264Z,22.47
2022-08-14T06:20:00.434Z,22.47
2022-08-14T06:21:01.467Z,22.47
2022-08-14T06:22:00.286Z,22.47
2022-08-14T06:23:00.739Z,22.47
2022-08-14T06:24:00.287Z,23.45
2022-08-14T06:25:00.287Z,23.45
2022-08-14T06:26:00.312Z,23.45
2022-08-14T06:27:04.405Z,23.45
2022-08-14T06:28:00.944Z,23.45
2022-08-14T06:29:00.306Z,24.24
2022-08-14T06:30:00.269Z,24.24
2022-08-14T06:31:00.285Z,24.24
2022-08-14T06:32:36.456Z,24.24
2022-08-14T06:33:03.815Z,24.24
2022-08-14T06:35:09.122Z,24.75
2022-08-14T06:35:09.883Z,24.75
2022-08-14T06:36:00.265Z,24.75
2022-08-14T06:37:00.249Z,24.75
2022-08-14T06:38:00.306Z,24.75
2022-08-14T06:39:00.264Z,25.38
2022-08-14T06:40:00.341Z,25.38
2022-08-14T06:41:00.290Z,25.38
2022-08-14T06:42:00.314Z,25.38
2022-08-14T06:43:03.192Z,25.38
2022-08-14T06:44:00.289Z,26.09
2022-08-14T06:45:00.267Z,26.09
2022-08-14T06:46:00.507Z,26.09
2022-08-14T06:47:01.543Z,26.09
2022-08-14T06:48:01.092Z,26.09
2022-08-14T06:49:00.332Z,26.19
2022-08-14T06:50:00.572Z,26.19
2022-08-14T06:51:00.319Z,26.19
2022-08-14T06:52:00.255Z,26.19
2022-08-14T06:53:00.279Z,26.19
2022-08-14T06:54:00.744Z,25.75
2022-08-14T06:55:00.329Z,25.75
2022-08-14T06:56:01.948Z,25.75
2022-08-14T06:57:00.291Z,25.75
2022-08-14T06:58:00.637Z,25.75
2022-08-14T06:59:00.256Z,24.96
2022-08-14T07:00:00.462Z,24.96
2022-08-14T07:01:00.285Z,24.96
2022-08-14T07:02:00.253Z,24.96
2022-08-14T07:03:00.261Z,24.96
2022-08-14T07:04:00.359Z,24.27
2022-08-14T07:05:00.275Z,24.27
2022-08-14T07:06:00.264Z,24.27
2022-08-14T07:07:00.248Z,24.27
2022-08-14T07:08:00.305Z,24.27
2022-08-14T07:09:00.343Z,23.58
2022-08-14T07:10:00.280Z,23.58
2022-08-14T07:11:01.304Z,23.58
2022-08-14T07:12:00.269Z,23.58
2022-08-14T07:13:03.774Z,23.58
2022-08-14T07:14:00.296Z,23.29
2022-08-14T07:15:01.427Z,23.29
2022-08-14T07:16:05.722Z,23.29
2022-08-14T07:17:00.289Z,23.29
2022-08-14T07:18:00.842Z,23.29
2022-08-14T07:19:00.278Z,23.26
2022-08-14T07:20:00.325Z,23.26
2022-08-14T07:21:00.973Z,23.26
2022-08-14T07:22:00.287Z,23.26
2022-08-14T07:23:06.961Z,23.26
2022-08-14T07:24:00.270Z,23.14
2022-08-14T07:25:00.334Z,23.14
2022-08-14T07:26:01.278Z,23.14
2022-08-14T07:27:00.254Z,23.14
2022-08-14T07:28:07.204Z,23.14
2022-08-14T07:29:00.265Z,23.24
2022-08-14T07:30:02.901Z,23.24
2022-08-14T07:31:05.131Z,23.24
2022-08-14T07:32:00.255Z,23.24
2022-08-14T07:33:00.326Z,23.24
2022-08-14T07:34:00.266Z,23.39
2022-08-14T07:35:00.388Z,23.39
2022-08-14T07:36:01.327Z,23.39
2022-08-14T07:37:00.980Z,23.39
2022-08-14T07:38:00.262Z,23.39
2022-08-14T07:39:03.023Z,23.50
2022-08-14T07:40:00.895Z,23.50
2022-08-14T07:41:00.545Z,23.50
2022-08-14T07:42:00.317Z,23.50
2022-08-14T07:43:00.685Z,23.50
2022-08-14T07:44:04.325Z,23.62
2022-08-14T07:45:00.392Z,23.62
2022-08-14T07:46:00.428Z,23.62
2022-08-14T07:47:00.338Z,23.62
2022-08-14T07:48:00.315Z,23.62
2022-08-14T07:49:00.289Z,23.61
2022-08-14T07:50:01.988Z,23.61
2022-08-14T07:51:03.803Z,23.61
2022-08-14T07:52:00.789Z,23.61
2022-08-14T07:53:00.723Z,23.61
2022-08-14T07:54:01.125Z,23.44
2022-08-14T07:55:00.259Z,23.44
2022-08-14T07:56:21.790Z,23.44
2022-08-14T07:57:00.656Z,23.44
2022-08-14T07:58:00.443Z,23.44
2022-08-14T07:59:00.300Z,23.71
2022-08-14T08:00:00.568Z,23.71
2022-08-14T08:01:00.397Z,23.71
2022-08-14T08:02:02.612Z,23.71
2022-08-14T08:03:00.633Z,23.71
2022-08-14T08:04:03.323Z,23.83
2022-08-14T08:05:01.073Z,23.83
2022-08-14T08:06:01.147Z,23.83
2022-08-14T08:07:00.462Z,23.83
2022-08-14T08:08:01.385Z,23.83
2022-08-14T08:09:03.234Z,24.04
2022-08-14T08:10:03.886Z,24.04
2022-08-14T08:11:03.123Z,24.04
2022-08-14T08:12:01.318Z,24.04
2022-08-14T08:13:01.268Z,24.04
2022-08-14T08:14:02.108Z,24.14
2022-08-14T08:15:06.981Z,24.14
2022-08-14T08:16:00.418Z,24.14
2022-08-14T08:17:00.272Z,24.14
2022-08-14T08:18:01.287Z,24.14
2022-08-14T08:19:10.063Z,24.24
2022-08-14T08:20:00.317Z,24.24
2022-08-14T08:21:00.525Z,24.24
2022-08-14T08:22:00.357Z,24.24
2022-08-14T08:23:06.296Z,24.24
2022-08-14T08:24:00.262Z,24.41
2022-08-14T08:25:00.292Z,24.41
2022-08-14T08:26:00.265Z,24.41
2022-08-14T08:27:00.479Z,24.41
2022-08-14T08:28:08.083Z,24.41
2022-08-14T08:29:00.266Z,24.70
2022-08-14T08:30:03.042Z,24.70
2022-08-14T08:31:00.994Z,24.70
2022-08-14T08:32:01.638Z,24.70
2022-08-14T08:33:00.902Z,24.70
2022-08-14T08:34:03.186Z,24.77
2022-08-14T08:35:00.279Z,24.77
2022-08-14T08:36:01.089Z,24.77
2022-08-14T08:37:05.150Z,24.77
2022-08-14T08:39:14.135Z,24.77
2022-08-14T08:39:18.872Z,24.87
2022-08-14T08:40:03.160Z,24.87
2022-08-14T08:41:00.640Z,24.87
2022-08-14T08:42:00.270Z,24.87
2022-08-14T08:43:00.782Z,24.87
2022-08-14T08:44:03.938Z,25.06
2022-08-14T08:45:00.256Z,25.06
2022-08-14T08:46:00.254Z,25.06
2022-08-14T08:47:01.210Z,25.06
2022-08-14T08:48:00.316Z,25.06
2022-08-14T08:50:00.464Z,25.21
2022-08-14T08:51:01.618Z,25.21
2022-08-14T08:52:01.003Z,25.21
2022-08-14T08:53:02.125Z,25.21
2022-08-14T08:54:18.185Z,25.44
2022-08-14T08:55:00.811Z,25.44
2022-08-14T08:56:01.029Z,25.44
2022-08-14T08:57:00.279Z,25.44
2022-08-14T08:58:05.566Z,25.44
2022-08-14T08:59:00.781Z,25.64
2022-08-14T09:00:00.462Z,25.64
2022-08-14T09:01:00.319Z,25.64
2022-08-14T09:02:05.026Z,25.64
2022-08-14T09:03:05.145Z,25.64
2022-08-14T09:04:00.830Z,25.76
2022-08-14T09:05:01.411Z,25.76
2022-08-14T09:06:01.676Z,25.76
2022-08-14T09:07:10.375Z,25.76
2022-08-14T09:08:08.514Z,25.76
2022-08-14T09:09:00.256Z,25.89
2022-08-14T09:10:00.894Z,25.89
2022-08-14T09:11:02.440Z,25.89
2022-08-14T09:12:01.475Z,25.89
2022-08-14T09:13:00.780Z,25.89
2022-08-14T09:14:00.320Z,26.07
2022-08-14T09:15:02.159Z,26.07
2022-08-14T09:16:00.840Z,26.07
2022-08-14T09:17:00.279Z,26.07
2022-08-14T09:18:00.459Z,26.07
2022-08-14T09:19:00.981Z,26.22
2022-08-14T09:20:02.317Z,26.22
2022-08-14T09:21:00.342Z,26.22
2022-08-14T09:22:00.889Z,26.22
2022-08-14T09:23:00.344Z,26.22
2022-08-14T09:24:26.362Z,26.40
2022-08-14T09:25:00.444Z,26.40
2022-08-14T09:26:01.804Z,26.40
2022-08-14T09:27:00.291Z,26.40
2022-08-14T09:28:00.917Z,26.40
2022-08-14T09:29:00.735Z,26.52
2022-08-14T09:30:00.584Z,26.52
2022-08-14T09:31:00.687Z,26.52
2022-08-14T09:32:02.176Z,26.52
2022-08-14T09:33:03.797Z,26.52
2022-08-14T09:34:04.368Z,26.68
2022-08-14T09:35:08.342Z,26.68
2022-08-14T09:36:10.216Z,26.68
2022-08-14T09:37:10.173Z,26.68
2022-08-14T09:38:19.402Z,26.68
2022-08-14T09:39:21.165Z,26.72
2022-08-14T09:40:10.467Z,26.72
2022-08-14T09:41:00.273Z,26.72
2022-08-14T09:42:20.118Z,26.72
2022-08-14T09:43:01.272Z,26.72
2022-08-14T09:44:10.192Z,26.85
2022-08-14T09:45:10.252Z,26.85
2022-08-14T09:46:05.682Z,26.85
2022-08-14T09:47:01.062Z,26.85
2022-08-14T09:48:00.375Z,26.85
2022-08-14T09:49:01.435Z,27.03
2022-08-14T09:50:00.305Z,27.03
2022-08-14T09:52:33.297Z,27.03
2022-08-14T09:53:02.217Z,27.03
2022-08-14T09:54:19.065Z,27.09
2022-08-14T09:55:00.946Z,27.09
2022-08-14T09:56:00.578Z,27.09
2022-08-14T09:57:00.313Z,27.09
2022-08-14T09:58:20.095Z,27.09
2022-08-14T09:59:09.551Z,27.26
2022-08-14T10:00:09.171Z,27.26
2022-08-14T10:01:07.525Z,27.26
2022-08-14T10:02:00.328Z,27.26
2022-08-14T10:03:00.390Z,27.26
2022-08-14T10:04:00.278Z,27.52
2022-08-14T10:05:01.533Z,27.52
2022-08-14T10:06:09.027Z,27.52
2022-08-14T10:07:00.310Z,27.52
2022-08-14T10:08:01.031Z,27.52
2022-08-14T10:09:00.276Z,27.69
2022-08-14T10:10:23.971Z,27.69
2022-08-14T10:11:03.044Z,27.69
2022-08-14T10:12:00.406Z,27.69
2022-08-14T10:13:01.035Z,27.69
2022-08-14T10:14:10.165Z,27.84
2022-08-14T10:15:00.286Z,27.84
2022-08-14T10:16:00.325Z,27.84
2022-08-14T10:17:00.427Z,27.84
2022-08-14T10:18:02.644Z,27.84
2022-08-14T10:19:03.223Z,27.90
2022-08-14T10:20:00.301Z,27.90
2022-08-14T10:21:00.290Z,27.90
2022-08-14T10:23:14.241Z,27.90
2022-08-14T10:23:22.052Z,27.90
2022-08-14T10:24:00.310Z,28.13
2022-08-14T10:25:08.907Z,28.13
2022-08-14T10:26:04.756Z,28.13
2022-08-14T10:27:01.156Z,28.13
2022-08-14T10:28:00.338Z,28.13
2022-08-14T10:29:22.641Z,28.29
2022-08-14T10:30:00.298Z,28.29
2022-08-14T10:31:00.344Z,28.29
2022-08-14T10:32:00.449Z,28.29
2022-08-14T10:33:00.313Z,28.29
2022-08-14T10:34:05.062Z,28.46
2022-08-14T10:35:13.711Z,28.46
2022-08-14T10:36:00.279Z,28.46
2022-08-14T10:37:02.994Z,28.46
2022-08-14T10:38:00.320Z,28.46
2022-08-14T10:39:02.074Z,28.58
2022-08-14T10:40:10.762Z,28.58
2022-08-14T10:41:09.202Z,28.58
2022-08-14T10:42:05.267Z,28.58
2022-08-14T10:43:00.294Z,28.58
2022-08-14T10:44:05.151Z,28.62
2022-08-14T10:45:00.310Z,28.62
2022-08-14T10:46:21.442Z,28.62
2022-08-14T10:47:40.959Z,28.62
2022-08-14T10:48:09.678Z,28.62
2022-08-14T10:49:00.954Z,28.84
2022-08-14T10:50:00.465Z,28.84
2022-08-14T10:51:00.342Z,28.84
2022-08-14T10:52:00.254Z,28.84
2022-08-14T10:53:00.311Z,28.84
2022-08-14T10:54:26.106Z,28.92
2022-08-14T10:55:05.825Z,28.92
2022-08-14T10:56:03.751Z,28.92
2022-08-14T10:57:10.180Z,28.92
2022-08-14T10:58:00.349Z,28.92
2022-08-14T10:59:01.269Z,29.03
2022-08-14T11:00:10.023Z,29.03
2022-08-14T11:01:00.866Z,29.03
2022-08-14T11:02:00.377Z,29.03
2022-08-14T11:03:01.942Z,29.03
2022-08-14T11:04:01.074Z,29.28
2022-08-14T11:05:04.714Z,29.28
2022-08-14T11:06:09.886Z,29.28
2022-08-14T11:07:00.283Z,29.28
2022-08-14T11:08:00.320Z,29.28
2022-08-14T11:09:10.168Z,29.29
2022-08-14T11:10:03.611Z,29.29
2022-08-14T11:11:02.389Z,29.29
2022-08-14T11:12:33.969Z,29.29
2022-08-14T11:13:00.274Z,29.29
2022-08-14T11:14:00.258Z,29.46
2022-08-14T11:15:02.497Z,29.46
2022-08-14T11:16:00.752Z,29.46
2022-08-14T11:17:01.180Z,29.46
2022-08-14T11:18:01.313Z,29.46
2022-08-14T11:19:02.092Z,29.60
2022-08-14T11:20:03.183Z,29.60
2022-08-14T11:21:00.333Z,29.60
2022-08-14T11:22:00.733Z,29.60
2022-08-14T11:23:00.371Z,29.60
2022-08-14T11:24:01.010Z,29.62
2022-08-14T11:25:06.443Z,29.62
2022-08-14T11:26:01.138Z,29.62
2022-08-14T11:27:01.121Z,29.62
2022-08-14T11:28:00.716Z,29.62
2022-08-14T11:29:01.723Z,29.69
2022-08-14T11:30:50.595Z,29.69
2022-08-14T11:31:03.576Z,29.69
2022-08-14T11:32:00.682Z,29.69
2022-08-14T11:33:00.294Z,29.69
2022-08-14T11:34:00.397Z,29.81
2022-08-14T11:35:00.286Z,29.81
2022-08-14T11:36:01.606Z,29.81
2022-08-14T11:37:18.158Z,29.81
2022-08-14T11:38:02.079Z,29.81
2022-08-14T11:39:00.286Z,29.83
2022-08-14T11:40:00.426Z,29.83
2022-08-14T11:41:00.501Z,29.83
2022-08-14T11:42:00.347Z,29.83
2022-08-14T11:43:01.336Z,29.83
2022-08-14T11:44:00.271Z,29.87
2022-08-14T11:45:03.095Z,29.87
2022-08-14T11:46:03.737Z,29.87
2022-08-14T11:47:05.945Z,29.87
2022-08-14T11:48:12.961Z,29.87
2022-08-14T11:49:03.854Z,30.02
2022-08-14T11:50:10.187Z,30.02
2022-08-14T11:51:00.287Z,30.02
2022-08-14T11:52:00.362Z,30.02
2022-08-14T11:53:02.329Z,30.02
2022-08-14T11:54:01.416Z,29.90
2022-08-14T11:55:00.298Z,29.90
2022-08-14T11:56:01.472Z,29.90
2022-08-14T11:57:00.524Z,29.90
2022-08-14T11:58:02.295Z,29.90
2022-08-14T11:59:00.620Z,30.03
2022-08-14T12:00:05.121Z,30.03
2022-08-14T12:01:02.528Z,30.03
2022-08-14T12:02:08.347Z,30.03
2022-08-14T12:03:04.097Z,30.03
2022-08-14T12:04:08.793Z,30.05
2022-08-14T12:05:00.505Z,30.05
2022-08-14T12:06:29.438Z,30.05
2022-08-14T12:07:00.373Z,30.05
2022-08-14T12:08:06.631Z,30.05
2022-08-14T12:09:00.823Z,29.99
2022-08-14T12:10:00.295Z,29.99
2022-08-14T12:11:00.483Z,29.99
2022-08-14T12:12:10.823Z,29.99
2022-08-14T12:13:10.174Z,29.99
2022-08-14T12:14:06.504Z,29.99
2022-08-14T12:15:00.413Z,29.99
2022-08-14T12:16:06.625Z,29.99
2022-08-14T12:17:02.315Z,29.99
2022-08-14T12:18:00.775Z,29.99
2022-08-14T12:19:00.483Z,30.06
2022-08-14T12:20:03.197Z,30.06
2022-08-14T12:21:10.168Z,30.06
2022-08-14T12:22:00.301Z,30.06
2022-08-14T12:23:00.724Z,30.06
2022-08-14T12:24:00.291Z,30.16
2022-08-14T12:25:00.577Z,30.16
2022-08-14T12:26:31.413Z,30.16
2022-08-14T12:27:00.272Z,30.16
2022-08-14T12:28:02.096Z,30.16
2022-08-14T12:29:04.502Z,30.31
2022-08-14T12:30:00.277Z,30.31
2022-08-14T12:31:10.168Z,30.31
2022-08-14T12:32:01.442Z,30.31
2022-08-14T12:33:01.716Z,30.31
2022-08-14T12:34:01.294Z,30.34
2022-08-14T12:35:00.314Z,30.34
2022-08-14T12:36:04.659Z,30.34
2022-08-14T12:37:01.504Z,30.34
2022-08-14T12:38:00.277Z,30.34
2022-08-14T12:39:01.229Z,30.47
2022-08-14T12:40:10.268Z,30.47
2022-08-14T12:41:00.751Z,30.47
2022-08-14T12:42:00.813Z,30.47
2022-08-14T12:43:01.282Z,30.47
2022-08-14T12:44:02.095Z,30.61
2022-08-14T12:45:03.854Z,30.61
2022-08-14T12:46:00.270Z,30.61
2022-08-14T12:47:03.023Z,30.61
2022-08-14T12:48:01.229Z,30.61
2022-08-14T12:49:02.757Z,30.74
2022-08-14T12:50:00.445Z,30.74
2022-08-14T12:51:00.276Z,30.74
2022-08-14T12:52:01.456Z,30.74
2022-08-14T12:53:13.832Z,30.74
2022-08-14T12:54:10.206Z,30.88
2022-08-14T12:55:06.269Z,30.88